sensor_id;sensor_type;location;lat;lon;timestamp;P1;durP1;ratioP1;P2;durP2;ratioP2
15273;SDS011;7738;49.532;11.156;2023-03-01T00:00:47;17.40;;;8.07;;
15273;SDS011;7738;49.532;11.156;2023-03-01T00:03:17;13.60;;;9.10;;
15273;SDS011;7738;49.532;11.156;2023-03-01T00:05:47;15.20;;;8.53;;
15273;SDS011;7738;49.532;11.156;2023-03-01T00:08:17;17.50;;;9.13;;
15273;SDS011;7738;49.532;11.156;2023-03-01T00:13:11;16.53;;;8.60;;
15273;SDS011;7738;49.532;11.156;2023-03-01T00:15:41;21.43;;;9.80;;
15273;SDS011;7738;49.532;11.156;2023-03-01T00:18:11;14.30;;;8.90;;
15273;SDS011;7738;49.532;11.156;2023-03-01T00:20:41;20.43;;;10.20;;
15273;SDS011;7738;49.532;11.156;2023-03-01T00:23:11;15.27;;;8.70;;
15273;SDS011;7738;49.532;11.156;2023-03-01T00:25:41;13.63;;;8.27;;
15273;SDS011;7738;49.532;11.156;2023-03-01T00:28:14;15.97;;;9.30;;
15273;SDS011;7738;49.532;11.156;2023-03-01T00:30:45;13.60;;;8.27;;
15273;SDS011;7738;49.532;11.156;2023-03-01T00:33:15;17.57;;;9.73;;
15273;SDS011;7738;49.532;11.156;2023-03-01T00:35:45;17.73;;;9.07;;
15273;SDS011;7738;49.532;11.156;2023-03-01T00:38:15;19.07;;;9.70;;
15273;SDS011;7738;49.532;11.156;2023-03-01T00:40:45;18.83;;;9.53;;
15273;SDS011;7738;49.532;11.156;2023-03-01T00:43:18;14.23;;;8.50;;
15273;SDS011;7738;49.532;11.156;2023-03-01T00:45:48;17.53;;;8.83;;
15273;SDS011;7738;49.532;11.156;2023-03-01T00:48:18;19.63;;;10.47;;
15273;SDS011;7738;49.532;11.156;2023-03-01T00:50:49;16.50;;;9.50;;
15273;SDS011;7738;49.532;11.156;2023-03-01T00:53:19;18.13;;;9.27;;
15273;SDS011;7738;49.532;11.156;2023-03-01T00:55:49;15.87;;;8.23;;
15273;SDS011;7738;49.532;11.156;2023-03-01T00:58:21;19.63;;;9.37;;
15273;SDS011;7738;49.532;11.156;2023-03-01T01:00:52;13.60;;;8.53;;
15273;SDS011;7738;49.532;11.156;2023-03-01T01:03:22;18.93;;;9.73;;
15273;SDS011;7738;49.532;11.156;2023-03-01T01:05:53;21.67;;;10.23;;
15273;SDS011;7738;49.532;11.156;2023-03-01T01:08:23;19.53;;;9.37;;
15273;SDS011;7738;49.532;11.156;2023-03-01T01:10:53;15.07;;;9.10;;
15273;SDS011;7738;49.532;11.156;2023-03-01T01:13:25;16.37;;;10.07;;
15273;SDS011;7738;49.532;11.156;2023-03-01T01:15:59;17.17;;;9.17;;
15273;SDS011;7738;49.532;11.156;2023-03-01T01:18:30;18.33;;;9.07;;
15273;SDS011;7738;49.532;11.156;2023-03-01T01:21:04;23.10;;;10.67;;
15273;SDS011;7738;49.532;11.156;2023-03-01T01:23:35;19.93;;;8.50;;
15273;SDS011;7738;49.532;11.156;2023-03-01T01:26:06;16.37;;;9.17;;
15273;SDS011;7738;49.532;11.156;2023-03-01T01:28:40;17.53;;;9.80;;
15273;SDS011;7738;49.532;11.156;2023-03-01T01:31:10;19.67;;;9.67;;
15273;SDS011;7738;49.532;11.156;2023-03-01T01:33:40;18.67;;;9.57;;
15273;SDS011;7738;49.532;11.156;2023-03-01T01:36:10;18.93;;;8.93;;
15273;SDS011;7738;49.532;11.156;2023-03-01T01:38:41;13.63;;;8.73;;
15273;SDS011;7738;49.532;11.156;2023-03-01T01:41:11;19.20;;;8.77;;
15273;SDS011;7738;49.532;11.156;2023-03-01T01:43:46;17.40;;;9.60;;
15273;SDS011;7738;49.532;11.156;2023-03-01T01:46:20;14.37;;;9.33;;
15273;SDS011;7738;49.532;11.156;2023-03-01T01:48:56;17.40;;;9.10;;
15273;SDS011;7738;49.532;11.156;2023-03-01T01:51:29;19.52;;;9.15;;
15273;SDS011;7738;49.532;11.156;2023-03-01T01:54:06;15.00;;;8.77;;
15273;SDS011;7738;49.532;11.156;2023-03-01T01:56:40;16.20;;;9.30;;
15273;SDS011;7738;49.532;11.156;2023-03-01T01:59:18;18.17;;;9.90;;
15273;SDS011;7738;49.532;11.156;2023-03-01T02:01:51;19.03;;;9.47;;
15273;SDS011;7738;49.532;11.156;2023-03-01T02:04:22;13.70;;;8.40;;
15273;SDS011;7738;49.532;11.156;2023-03-01T02:06:54;13.37;;;9.30;;
15273;SDS011;7738;49.532;11.156;2023-03-01T02:09:29;18.87;;;8.10;;
15273;SDS011;7738;49.532;11.156;2023-03-01T02:12:01;17.23;;;8.67;;
15273;SDS011;7738;49.532;11.156;2023-03-01T02:14:36;16.10;;;8.23;;
15273;SDS011;7738;49.532;11.156;2023-03-01T02:17:06;14.50;;;8.33;;
15273;SDS011;7738;49.532;11.156;2023-03-01T02:19:40;20.07;;;10.03;;
15273;SDS011;7738;49.532;11.156;2023-03-01T02:22:20;19.30;;;9.63;;
15273;SDS011;7738;49.532;11.156;2023-03-01T02:27:36;16.23;;;9.03;;
15273;SDS011;7738;49.532;11.156;2023-03-01T02:30:13;15.63;;;8.63;;
15273;SDS011;7738;49.532;11.156;2023-03-01T02:32:43;15.03;;;8.87;;
15273;SDS011;7738;49.532;11.156;2023-03-01T02:35:12;13.83;;;9.00;;
15273;SDS011;7738;49.532;11.156;2023-03-01T02:37:44;14.95;;;9.25;;
15273;SDS011;7738;49.532;11.156;2023-03-01T02:40:15;19.67;;;9.27;;
15273;SDS011;7738;49.532;11.156;2023-03-01T02:42:49;19.37;;;10.03;;
15273;SDS011;7738;49.532;11.156;2023-03-01T02:45:26;17.73;;;9.20;;
15273;SDS011;7738;49.532;11.156;2023-03-01T02:47:57;13.85;;;9.15;;
15273;SDS011;7738;49.532;11.156;2023-03-01T02:50:37;15.17;;;8.43;;
15273;SDS011;7738;49.532;11.156;2023-03-01T02:53:16;17.03;;;8.27;;
15273;SDS011;7738;49.532;11.156;2023-03-01T02:55:54;17.77;;;10.07;;
15273;SDS011;7738;49.532;11.156;2023-03-01T02:58:25;13.07;;;7.77;;
15273;SDS011;7738;49.532;11.156;2023-03-01T03:00:58;19.63;;;9.33;;
15273;SDS011;7738;49.532;11.156;2023-03-01T03:03:28;16.57;;;9.53;;
15273;SDS011;7738;49.532;11.156;2023-03-01T03:05:58;22.17;;;9.13;;
15273;SDS011;7738;49.532;11.156;2023-03-01T03:08:29;17.13;;;8.17;;
15273;SDS011;7738;49.532;11.156;2023-03-01T03:10:59;18.17;;;8.77;;
15273;SDS011;7738;49.532;11.156;2023-03-01T03:13:29;16.63;;;9.43;;
15273;SDS011;7738;49.532;11.156;2023-03-01T03:16:02;18.90;;;8.67;;
15273;SDS011;7738;49.532;11.156;2023-03-01T03:18:33;17.13;;;9.10;;
15273;SDS011;7738;49.532;11.156;2023-03-01T03:21:03;13.93;;;8.40;;
15273;SDS011;7738;49.532;11.156;2023-03-01T03:23:37;13.65;;;7.88;;
15273;SDS011;7738;49.532;11.156;2023-03-01T03:26:07;17.23;;;8.67;;
15273;SDS011;7738;49.532;11.156;2023-03-01T03:28:39;15.80;;;8.70;;
15273;SDS011;7738;49.532;11.156;2023-03-01T03:31:12;15.63;;;8.67;;
15273;SDS011;7738;49.532;11.156;2023-03-01T03:33:42;19.60;;;9.73;;
15273;SDS011;7738;49.532;11.156;2023-03-01T03:36:14;17.87;;;9.63;;
15273;SDS011;7738;49.532;11.156;2023-03-01T03:38:45;16.30;;;9.13;;
15273;SDS011;7738;49.532;11.156;2023-03-01T03:41:16;18.63;;;8.47;;
15273;SDS011;7738;49.532;11.156;2023-03-01T03:43:46;19.47;;;9.77;;
15273;SDS011;7738;49.532;11.156;2023-03-01T03:46:19;14.43;;;8.23;;
15273;SDS011;7738;49.532;11.156;2023-03-01T03:48:49;15.90;;;9.23;;
15273;SDS011;7738;49.532;11.156;2023-03-01T03:51:19;19.00;;;10.17;;
15273;SDS011;7738;49.532;11.156;2023-03-01T03:53:49;16.53;;;8.53;;
15273;SDS011;7738;49.532;11.156;2023-03-01T03:56:19;16.43;;;9.03;;
15273;SDS011;7738;49.532;11.156;2023-03-01T03:58:54;20.00;;;9.03;;
15273;SDS011;7738;49.532;11.156;2023-03-01T04:01:26;19.50;;;10.97;;
15273;SDS011;7738;49.532;11.156;2023-03-01T04:03:56;19.20;;;9.87;;
15273;SDS011;7738;49.532;11.156;2023-03-01T04:06:30;18.17;;;9.55;;
15273;SDS011;7738;49.532;11.156;2023-03-01T04:09:01;18.40;;;10.10;;
15273;SDS011;7738;49.532;11.156;2023-03-01T04:11:31;13.73;;;8.57;;
15273;SDS011;7738;49.532;11.156;2023-03-01T04:14:01;18.53;;;9.97;;
15273;SDS011;7738;49.532;11.156;2023-03-01T04:16:33;19.23;;;8.87;;
15273;SDS011;7738;49.532;11.156;2023-03-01T04:19:03;16.43;;;9.53;;
15273;SDS011;7738;49.532;11.156;2023-03-01T04:21:35;15.50;;;8.70;;
15273;SDS011;7738;49.532;11.156;2023-03-01T04:24:06;17.83;;;9.67;;
15273;SDS011;7738;49.532;11.156;2023-03-01T04:26:36;13.93;;;8.27;;
15273;SDS011;7738;49.532;11.156;2023-03-01T04:29:07;18.23;;;9.07;;
15273;SDS011;7738;49.532;11.156;2023-03-01T04:31:39;21.40;;;9.80;;
15273;SDS011;7738;49.532;11.156;2023-03-01T04:34:09;18.50;;;9.90;;
15273;SDS011;7738;49.532;11.156;2023-03-01T04:36:40;16.83;;;8.57;;
15273;SDS011;7738;49.532;11.156;2023-03-01T04:39:10;17.93;;;9.43;;
15273;SDS011;7738;49.532;11.156;2023-03-01T04:41:41;21.50;;;10.17;;
15273;SDS011;7738;49.532;11.156;2023-03-01T04:44:12;19.77;;;9.77;;
15273;SDS011;7738;49.532;11.156;2023-03-01T04:46:44;14.37;;;8.57;;
15273;SDS011;7738;49.532;11.156;2023-03-01T04:49:17;18.67;;;9.10;;
15273;SDS011;7738;49.532;11.156;2023-03-01T04:51:47;16.93;;;9.27;;
15273;SDS011;7738;49.532;11.156;2023-03-01T04:54:17;14.00;;;8.23;;
15273;SDS011;7738;49.532;11.156;2023-03-01T04:56:47;18.17;;;9.60;;
15273;SDS011;7738;49.532;11.156;2023-03-01T04:59:17;13.80;;;8.33;;
15273;SDS011;7738;49.532;11.156;2023-03-01T05:01:51;16.40;;;9.00;;
15273;SDS011;7738;49.532;11.156;2023-03-01T05:04:22;14.70;;;6.85;;
15273;SDS011;7738;49.532;11.156;2023-03-01T05:06:53;20.57;;;10.17;;
15273;SDS011;7738;49.532;11.156;2023-03-01T05:09:25;18.03;;;9.47;;
15273;SDS011;7738;49.532;11.156;2023-03-01T05:11:55;15.00;;;9.03;;
15273;SDS011;7738;49.532;11.156;2023-03-01T05:14:25;23.10;;;10.67;;
15273;SDS011;7738;49.532;11.156;2023-03-01T05:16:57;16.53;;;8.80;;
15273;SDS011;7738;49.532;11.156;2023-03-01T05:19:30;17.90;;;8.10;;
15273;SDS011;7738;49.532;11.156;2023-03-01T05:22:00;18.90;;;9.87;;
15273;SDS011;7738;49.532;11.156;2023-03-01T05:24:34;17.43;;;10.63;;
15273;SDS011;7738;49.532;11.156;2023-03-01T05:27:05;14.07;;;9.53;;
15273;SDS011;7738;49.532;11.156;2023-03-01T05:29:35;17.37;;;9.53;;
15273;SDS011;7738;49.532;11.156;2023-03-01T05:32:08;22.37;;;10.13;;
15273;SDS011;7738;49.532;11.156;2023-03-01T05:34:42;24.10;;;10.30;;
15273;SDS011;7738;49.532;11.156;2023-03-01T05:37:13;18.93;;;11.40;;
15273;SDS011;7738;49.532;11.156;2023-03-01T05:39:43;18.57;;;9.87;;
15273;SDS011;7738;49.532;11.156;2023-03-01T05:42:16;18.50;;;11.23;;
15273;SDS011;7738;49.532;11.156;2023-03-01T05:44:48;20.47;;;9.93;;
15273;SDS011;7738;49.532;11.156;2023-03-01T05:47:21;18.00;;;10.17;;
15273;SDS011;7738;49.532;11.156;2023-03-01T05:49:51;16.83;;;9.47;;
15273;SDS011;7738;49.532;11.156;2023-03-01T05:52:21;25.40;;;10.47;;
15273;SDS011;7738;49.532;11.156;2023-03-01T05:54:51;18.53;;;9.23;;
15273;SDS011;7738;49.532;11.156;2023-03-01T05:57:21;19.27;;;10.07;;
15273;SDS011;7738;49.532;11.156;2023-03-01T05:59:52;17.97;;;9.50;;
15273;SDS011;7738;49.532;11.156;2023-03-01T06:02:24;21.07;;;10.40;;
15273;SDS011;7738;49.532;11.156;2023-03-01T06:04:55;16.23;;;9.90;;
15273;SDS011;7738;49.532;11.156;2023-03-01T06:07:26;16.70;;;9.60;;
15273;SDS011;7738;49.532;11.156;2023-03-01T06:09:55;16.70;;;10.67;;
15273;SDS011;7738;49.532;11.156;2023-03-01T06:12:25;17.80;;;10.97;;
15273;SDS011;7738;49.532;11.156;2023-03-01T06:14:59;18.70;;;9.67;;
15273;SDS011;7738;49.532;11.156;2023-03-01T06:17:34;18.97;;;9.97;;
15273;SDS011;7738;49.532;11.156;2023-03-01T06:20:06;16.03;;;9.50;;
15273;SDS011;7738;49.532;11.156;2023-03-01T06:22:38;21.83;;;10.40;;
15273;SDS011;7738;49.532;11.156;2023-03-01T06:25:14;14.57;;;9.33;;
15273;SDS011;7738;49.532;11.156;2023-03-01T06:27:45;19.70;;;9.70;;
15273;SDS011;7738;49.532;11.156;2023-03-01T06:30:16;18.87;;;10.67;;
15273;SDS011;7738;49.532;11.156;2023-03-01T06:32:49;15.03;;;9.03;;
15273;SDS011;7738;49.532;11.156;2023-03-01T06:35:27;18.00;;;10.53;;
15273;SDS011;7738;49.532;11.156;2023-03-01T06:37:58;18.97;;;9.67;;
15273;SDS011;7738;49.532;11.156;2023-03-01T06:40:30;24.07;;;9.37;;
15273;SDS011;7738;49.532;11.156;2023-03-01T06:43:01;18.93;;;10.80;;
15273;SDS011;7738;49.532;11.156;2023-03-01T06:45:32;18.93;;;10.00;;
15273;SDS011;7738;49.532;11.156;2023-03-01T06:48:05;15.13;;;9.20;;
15273;SDS011;7738;49.532;11.156;2023-03-01T06:50:36;27.55;;;11.65;;
15273;SDS011;7738;49.532;11.156;2023-03-01T06:53:06;18.07;;;9.93;;
15273;SDS011;7738;49.532;11.156;2023-03-01T06:55:37;18.90;;;10.50;;
15273;SDS011;7738;49.532;11.156;2023-03-01T06:58:07;23.10;;;10.97;;
15273;SDS011;7738;49.532;11.156;2023-03-01T07:00:38;18.37;;;10.10;;
15273;SDS011;7738;49.532;11.156;2023-03-01T07:03:12;15.90;;;9.73;;
15273;SDS011;7738;49.532;11.156;2023-03-01T07:05:42;18.60;;;10.67;;
15273;SDS011;7738;49.532;11.156;2023-03-01T07:08:12;22.63;;;10.10;;
15273;SDS011;7738;49.532;11.156;2023-03-01T07:10:42;20.33;;;10.43;;
15273;SDS011;7738;49.532;11.156;2023-03-01T07:13:12;20.77;;;11.20;;
15273;SDS011;7738;49.532;11.156;2023-03-01T07:15:41;18.67;;;10.30;;
15273;SDS011;7738;49.532;11.156;2023-03-01T07:18:14;21.53;;;11.13;;
15273;SDS011;7738;49.532;11.156;2023-03-01T07:20:44;18.93;;;10.43;;
15273;SDS011;7738;49.532;11.156;2023-03-01T07:23:14;19.20;;;11.00;;
15273;SDS011;7738;49.532;11.156;2023-03-01T07:25:44;21.43;;;10.67;;
15273;SDS011;7738;49.532;11.156;2023-03-01T07:28:22;17.10;;;9.97;;
15273;SDS011;7738;49.532;11.156;2023-03-01T07:30:52;17.23;;;9.60;;
15273;SDS011;7738;49.532;11.156;2023-03-01T07:33:25;17.30;;;10.43;;
15273;SDS011;7738;49.532;11.156;2023-03-01T07:35:56;19.00;;;10.43;;
15273;SDS011;7738;49.532;11.156;2023-03-01T07:38:27;19.47;;;11.37;;
15273;SDS011;7738;49.532;11.156;2023-03-01T07:40:58;22.20;;;12.50;;
15273;SDS011;7738;49.532;11.156;2023-03-01T07:43:29;19.80;;;10.83;;
15273;SDS011;7738;49.532;11.156;2023-03-01T07:45:59;27.73;;;11.63;;
15273;SDS011;7738;49.532;11.156;2023-03-01T07:48:32;20.00;;;10.03;;
15273;SDS011;7738;49.532;11.156;2023-03-01T07:51:04;22.77;;;11.53;;
15273;SDS011;7738;49.532;11.156;2023-03-01T07:53:35;23.70;;;10.80;;
15273;SDS011;7738;49.532;11.156;2023-03-01T07:56:06;17.23;;;9.80;;
15273;SDS011;7738;49.532;11.156;2023-03-01T07:58:38;19.17;;;10.33;;
15273;SDS011;7738;49.532;11.156;2023-03-01T08:01:09;18.90;;;10.80;;
15273;SDS011;7738;49.532;11.156;2023-03-01T08:03:44;20.17;;;11.00;;
15273;SDS011;7738;49.532;11.156;2023-03-01T08:06:15;20.83;;;11.37;;
15273;SDS011;7738;49.532;11.156;2023-03-01T08:08:45;20.50;;;11.27;;
15273;SDS011;7738;49.532;11.156;2023-03-01T08:11:15;19.73;;;10.60;;
15273;SDS011;7738;49.532;11.156;2023-03-01T08:13:46;17.60;;;10.67;;
15273;SDS011;7738;49.532;11.156;2023-03-01T08:16:19;14.85;;;9.73;;
15273;SDS011;7738;49.532;11.156;2023-03-01T08:18:52;18.97;;;11.37;;
15273;SDS011;7738;49.532;11.156;2023-03-01T08:21:23;16.30;;;9.07;;
15273;SDS011;7738;49.532;11.156;2023-03-01T08:23:53;26.40;;;10.07;;
15273;SDS011;7738;49.532;11.156;2023-03-01T08:26:23;21.43;;;10.53;;
15273;SDS011;7738;49.532;11.156;2023-03-01T08:28:53;22.97;;;10.37;;
15273;SDS011;7738;49.532;11.156;2023-03-01T08:31:23;16.77;;;10.07;;
15273;SDS011;7738;49.532;11.156;2023-03-01T08:33:59;16.10;;;9.90;;
15273;SDS011;7738;49.532;11.156;2023-03-01T08:36:31;23.03;;;11.77;;
15273;SDS011;7738;49.532;11.156;2023-03-01T08:39:02;20.80;;;11.17;;
15273;SDS011;7738;49.532;11.156;2023-03-01T08:41:33;20.70;;;11.17;;
15273;SDS011;7738;49.532;11.156;2023-03-01T08:44:03;18.77;;;11.67;;
15273;SDS011;7738;49.532;11.156;2023-03-01T08:46:34;22.77;;;13.93;;
15273;SDS011;7738;49.532;11.156;2023-03-01T08:49:10;22.80;;;11.83;;
15273;SDS011;7738;49.532;11.156;2023-03-01T08:51:42;23.97;;;12.10;;
15273;SDS011;7738;49.532;11.156;2023-03-01T08:54:13;20.00;;;10.20;;
15273;SDS011;7738;49.532;11.156;2023-03-01T08:56:45;19.27;;;10.73;;
15273;SDS011;7738;49.532;11.156;2023-03-01T08:59:16;18.70;;;11.47;;
15273;SDS011;7738;49.532;11.156;2023-03-01T09:01:46;21.07;;;11.53;;
15273;SDS011;7738;49.532;11.156;2023-03-01T09:04:19;21.97;;;10.90;;
15273;SDS011;7738;49.532;11.156;2023-03-01T09:06:49;16.60;;;11.43;;
15273;SDS011;7738;49.532;11.156;2023-03-01T09:09:19;24.50;;;11.90;;
15273;SDS011;7738;49.532;11.156;2023-03-01T09:11:49;21.67;;;13.37;;
15273;SDS011;7738;49.532;11.156;2023-03-01T09:14:19;19.13;;;11.40;;
15273;SDS011;7738;49.532;11.156;2023-03-01T09:16:49;15.83;;;9.90;;
15273;SDS011;7738;49.532;11.156;2023-03-01T09:19:21;20.40;;;12.43;;
15273;SDS011;7738;49.532;11.156;2023-03-01T09:21:52;21.85;;;11.15;;
15273;SDS011;7738;49.532;11.156;2023-03-01T09:24:24;20.40;;;10.70;;
15273;SDS011;7738;49.532;11.156;2023-03-01T09:26:55;17.40;;;9.80;;
15273;SDS011;7738;49.532;11.156;2023-03-01T09:29:26;22.30;;;11.60;;
15273;SDS011;7738;49.532;11.156;2023-03-01T09:31:56;20.70;;;11.83;;
15273;SDS011;7738;49.532;11.156;2023-03-01T09:34:29;15.23;;;10.03;;
15273;SDS011;7738;49.532;11.156;2023-03-01T09:37:20;20.07;;;11.53;;
15273;SDS011;7738;49.532;11.156;2023-03-01T09:39:50;18.63;;;10.67;;
15273;SDS011;7738;49.532;11.156;2023-03-01T09:42:20;19.43;;;11.40;;
15273;SDS011;7738;49.532;11.156;2023-03-01T09:44:51;18.17;;;10.88;;
15273;SDS011;7738;49.532;11.156;2023-03-01T09:47:25;15.90;;;10.07;;
15273;SDS011;7738;49.532;11.156;2023-03-01T09:50:02;17.88;;;10.25;;
15273;SDS011;7738;49.532;11.156;2023-03-01T09:52:36;20.20;;;10.47;;
15273;SDS011;7738;49.532;11.156;2023-03-01T09:55:11;19.75;;;10.88;;
15273;SDS011;7738;49.532;11.156;2023-03-01T09:57:45;17.30;;;9.70;;
15273;SDS011;7738;49.532;11.156;2023-03-01T10:00:24;20.67;;;10.87;;
15273;SDS011;7738;49.532;11.156;2023-03-01T10:03:01;18.15;;;10.60;;
15273;SDS011;7738;49.532;11.156;2023-03-01T10:05:43;17.55;;;9.63;;
15273;SDS011;7738;49.532;11.156;2023-03-01T10:08:25;19.67;;;10.82;;
15273;SDS011;7738;49.532;11.156;2023-03-01T10:11:04;18.17;;;10.30;;
15273;SDS011;7738;49.532;11.156;2023-03-01T10:13:50;16.85;;;10.15;;
15273;SDS011;7738;49.532;11.156;2023-03-01T10:16:27;17.83;;;10.05;;
15273;SDS011;7738;49.532;11.156;2023-03-01T10:19:03;18.70;;;10.30;;
15273;SDS011;7738;49.532;11.156;2023-03-01T10:21:38;17.15;;;9.80;;
15273;SDS011;7738;49.532;11.156;2023-03-01T10:24:14;16.90;;;10.32;;
15273;SDS011;7738;49.532;11.156;2023-03-01T10:26:50;19.45;;;10.07;;
15273;SDS011;7738;49.532;11.156;2023-03-01T10:29:26;14.82;;;9.25;;
15273;SDS011;7738;49.532;11.156;2023-03-01T10:32:03;15.95;;;9.77;;
15273;SDS011;7738;49.532;11.156;2023-03-01T10:34:35;20.25;;;11.18;;
15273;SDS011;7738;49.532;11.156;2023-03-01T10:37:11;18.90;;;10.23;;
15273;SDS011;7738;49.532;11.156;2023-03-01T10:39:54;18.33;;;9.60;;
15273;SDS011;7738;49.532;11.156;2023-03-01T10:42:26;15.75;;;9.82;;
15273;SDS011;7738;49.532;11.156;2023-03-01T10:44:58;17.65;;;9.75;;
15273;SDS011;7738;49.532;11.156;2023-03-01T10:47:45;17.85;;;10.13;;
15273;SDS011;7738;49.532;11.156;2023-03-01T10:50:20;22.00;;;10.15;;
15273;SDS011;7738;49.532;11.156;2023-03-01T10:52:58;18.35;;;9.98;;
15273;SDS011;7738;49.532;11.156;2023-03-01T10:55:31;21.05;;;11.68;;
15273;SDS011;7738;49.532;11.156;2023-03-01T10:58:08;18.65;;;11.30;;
15273;SDS011;7738;49.532;11.156;2023-03-01T11:00:47;13.38;;;8.65;;
15273;SDS011;7738;49.532;11.156;2023-03-01T11:03:21;15.00;;;9.73;;
15273;SDS011;7738;49.532;11.156;2023-03-01T11:06:02;19.05;;;10.82;;
15273;SDS011;7738;49.532;11.156;2023-03-01T11:08:38;16.02;;;9.15;;
15273;SDS011;7738;49.532;11.156;2023-03-01T11:11:14;15.68;;;8.93;;
15273;SDS011;7738;49.532;11.156;2023-03-01T11:13:55;16.60;;;10.15;;
15273;SDS011;7738;49.532;11.156;2023-03-01T11:16:28;15.68;;;9.65;;
15273;SDS011;7738;49.532;11.156;2023-03-01T11:19:14;14.98;;;10.13;;
15273;SDS011;7738;49.532;11.156;2023-03-01T11:21:52;14.30;;;8.68;;
15273;SDS011;7738;49.532;11.156;2023-03-01T11:24:30;17.63;;;10.40;;
15273;SDS011;7738;49.532;11.156;2023-03-01T11:27:16;16.15;;;9.93;;
15273;SDS011;7738;49.532;11.156;2023-03-01T11:29:51;17.08;;;8.98;;
15273;SDS011;7738;49.532;11.156;2023-03-01T11:32:26;17.00;;;9.55;;
15273;SDS011;7738;49.532;11.156;2023-03-01T11:35:02;18.00;;;9.88;;
15273;SDS011;7738;49.532;11.156;2023-03-01T11:37:40;14.50;;;9.52;;
15273;SDS011;7738;49.532;11.156;2023-03-01T11:40:21;21.30;;;10.77;;
15273;SDS011;7738;49.532;11.156;2023-03-01T11:42:56;16.02;;;9.43;;
15273;SDS011;7738;49.532;11.156;2023-03-01T11:45:39;11.90;;;8.55;;
15273;SDS011;7738;49.532;11.156;2023-03-01T11:48:29;16.98;;;8.60;;
15273;SDS011;7738;49.532;11.156;2023-03-01T11:51:20;15.68;;;8.07;;
15273;SDS011;7738;49.532;11.156;2023-03-01T11:53:57;15.07;;;9.10;;
15273;SDS011;7738;49.532;11.156;2023-03-01T11:56:41;12.63;;;8.65;;
15273;SDS011;7738;49.532;11.156;2023-03-01T11:59:20;12.57;;;7.57;;
15273;SDS011;7738;49.532;11.156;2023-03-01T12:02:18;12.50;;;8.05;;
15273;SDS011;7738;49.532;11.156;2023-03-01T12:05:02;15.30;;;8.30;;
15273;SDS011;7738;49.532;11.156;2023-03-01T12:07:37;17.60;;;9.63;;
15273;SDS011;7738;49.532;11.156;2023-03-01T12:10:20;15.52;;;8.85;;
15273;SDS011;7738;49.532;11.156;2023-03-01T12:15:58;12.02;;;7.72;;
15273;SDS011;7738;49.532;11.156;2023-03-01T12:21:37;15.13;;;8.70;;
15273;SDS011;7738;49.532;11.156;2023-03-01T12:27:17;12.63;;;7.93;;
15273;SDS011;7738;49.532;11.156;2023-03-01T12:30:04;15.25;;;8.38;;
15273;SDS011;7738;49.532;11.156;2023-03-01T12:32:51;12.48;;;8.43;;
15273;SDS011;7738;49.532;11.156;2023-03-01T12:35:33;17.88;;;9.43;;
15273;SDS011;7738;49.532;11.156;2023-03-01T12:38:13;17.42;;;8.70;;
15273;SDS011;7738;49.532;11.156;2023-03-01T12:44:01;16.95;;;8.73;;
15273;SDS011;7738;49.532;11.156;2023-03-01T12:46:46;16.17;;;10.23;;
15273;SDS011;7738;49.532;11.156;2023-03-01T12:49:23;13.13;;;8.90;;
15273;SDS011;7738;49.532;11.156;2023-03-01T12:51:58;15.10;;;9.45;;
15273;SDS011;7738;49.532;11.156;2023-03-01T12:54:30;16.10;;;8.73;;
15273;SDS011;7738;49.532;11.156;2023-03-01T12:57:05;12.55;;;8.73;;
15273;SDS011;7738;49.532;11.156;2023-03-01T12:59:42;15.85;;;8.60;;
15273;SDS011;7738;49.532;11.156;2023-03-01T13:02:23;13.77;;;8.77;;
15273;SDS011;7738;49.532;11.156;2023-03-01T13:05:00;16.00;;;9.13;;
15273;SDS011;7738;49.532;11.156;2023-03-01T13:07:49;16.55;;;8.63;;
15273;SDS011;7738;49.532;11.156;2023-03-01T13:10:24;13.48;;;8.50;;
15273;SDS011;7738;49.532;11.156;2023-03-01T13:13:03;15.10;;;8.05;;
15273;SDS011;7738;49.532;11.156;2023-03-01T13:21:02;14.88;;;9.25;;
15273;SDS011;7738;49.532;11.156;2023-03-01T13:23:34;13.15;;;8.63;;
15273;SDS011;7738;49.532;11.156;2023-03-01T13:26:09;14.75;;;8.20;;
15273;SDS011;7738;49.532;11.156;2023-03-01T13:28:46;13.57;;;8.23;;
15273;SDS011;7738;49.532;11.156;2023-03-01T13:34:42;14.60;;;9.30;;
15273;SDS011;7738;49.532;11.156;2023-03-01T13:37:18;15.45;;;8.60;;
15273;SDS011;7738;49.532;11.156;2023-03-01T13:39:49;16.15;;;9.23;;
15273;SDS011;7738;49.532;11.156;2023-03-01T13:42:33;12.23;;;8.00;;
15273;SDS011;7738;49.532;11.156;2023-03-01T13:47:43;14.02;;;7.90;;
15273;SDS011;7738;49.532;11.156;2023-03-01T13:50:19;14.45;;;8.60;;
15273;SDS011;7738;49.532;11.156;2023-03-01T13:52:53;14.80;;;8.95;;
15273;SDS011;7738;49.532;11.156;2023-03-01T13:55:30;13.18;;;8.52;;
15273;SDS011;7738;49.532;11.156;2023-03-01T13:58:13;12.15;;;8.20;;
15273;SDS011;7738;49.532;11.156;2023-03-01T14:00:54;15.15;;;9.00;;
15273;SDS011;7738;49.532;11.156;2023-03-01T14:03:25;15.90;;;9.63;;
15273;SDS011;7738;49.532;11.156;2023-03-01T14:06:00;16.48;;;8.88;;
15273;SDS011;7738;49.532;11.156;2023-03-01T14:08:41;17.08;;;11.10;;
15273;SDS011;7738;49.532;11.156;2023-03-01T14:14:30;14.30;;;8.52;;
15273;SDS011;7738;49.532;11.156;2023-03-01T14:17:09;13.60;;;8.95;;
15273;SDS011;7738;49.532;11.156;2023-03-01T14:19:59;15.90;;;9.98;;
15273;SDS011;7738;49.532;11.156;2023-03-01T14:22:35;15.27;;;9.38;;
15273;SDS011;7738;49.532;11.156;2023-03-01T14:25:16;17.42;;;9.95;;
15273;SDS011;7738;49.532;11.156;2023-03-01T14:27:55;18.35;;;9.10;;
15273;SDS011;7738;49.532;11.156;2023-03-01T14:30:31;13.68;;;9.07;;
15273;SDS011;7738;49.532;11.156;2023-03-01T14:33:06;15.63;;;9.18;;
15273;SDS011;7738;49.532;11.156;2023-03-01T14:35:57;13.27;;;9.43;;
15273;SDS011;7738;49.532;11.156;2023-03-01T14:38:33;12.88;;;8.75;;
15273;SDS011;7738;49.532;11.156;2023-03-01T14:41:05;15.90;;;8.75;;
15273;SDS011;7738;49.532;11.156;2023-03-01T14:43:37;13.98;;;8.93;;
15273;SDS011;7738;49.532;11.156;2023-03-01T14:46:16;14.55;;;8.55;;
15273;SDS011;7738;49.532;11.156;2023-03-01T14:48:49;11.98;;;8.05;;
15273;SDS011;7738;49.532;11.156;2023-03-01T14:51:20;15.90;;;8.77;;
15273;SDS011;7738;49.532;11.156;2023-03-01T14:53:53;13.65;;;8.80;;
15273;SDS011;7738;49.532;11.156;2023-03-01T14:56:23;12.73;;;7.65;;
15273;SDS011;7738;49.532;11.156;2023-03-01T14:58:53;11.95;;;7.70;;
15273;SDS011;7738;49.532;11.156;2023-03-01T15:03:57;13.35;;;7.28;;
15273;SDS011;7738;49.532;11.156;2023-03-01T15:06:28;10.13;;;6.72;;
15273;SDS011;7738;49.532;11.156;2023-03-01T15:09:02;10.35;;;6.95;;
15273;SDS011;7738;49.532;11.156;2023-03-01T15:11:34;12.63;;;8.35;;
15273;SDS011;7738;49.532;11.156;2023-03-01T15:17:21;13.07;;;6.63;;
15273;SDS011;7738;49.532;11.156;2023-03-01T15:19:57;10.38;;;6.72;;
15273;SDS011;7738;49.532;11.156;2023-03-01T15:22:28;13.30;;;7.07;;
15273;SDS011;7738;49.532;11.156;2023-03-01T15:25:00;10.18;;;6.13;;
15273;SDS011;7738;49.532;11.156;2023-03-01T15:27:31;12.50;;;6.95;;
15273;SDS011;7738;49.532;11.156;2023-03-01T15:30:03;11.50;;;6.22;;
15273;SDS011;7738;49.532;11.156;2023-03-01T15:32:35;10.10;;;7.55;;
15273;SDS011;7738;49.532;11.156;2023-03-01T15:41:24;11.27;;;7.00;;
15273;SDS011;7738;49.532;11.156;2023-03-01T15:43:57;14.45;;;8.38;;
15273;SDS011;7738;49.532;11.156;2023-03-01T15:46:29;11.95;;;7.28;;
15273;SDS011;7738;49.532;11.156;2023-03-01T15:49:02;12.95;;;7.90;;
15273;SDS011;7738;49.532;11.156;2023-03-01T15:51:34;12.43;;;8.15;;